Bear Branch, Kentucky
Current Conditions -  °F | °C
As of 6:55 PM on Friday 31 Oct 2014 (Local Time) from KI35 Reporting Station
Overcast Overcast  
Wind Chill: 35°   Ceiling: 1600
Heat Index: 43°   Visibility: 7mi
Dew Point: 41°   Wind: 16mph
Humidity: 93%   Direction: 290°WNW
Pressure: 29.88"   Gusts: 23mph
Location:  37.19°N, 83.49°W
Report Text: KI35 312255Z AUTO 29014G20KT 260V350 7SM BKN016 OVC022 06/05 A2988 RMK AO1
Loading
Personal Weather Stations






























Interactive Weather Map
Tropical Storm Tracking
New forecast layout! Learn more

10-Day Weather Forecast

Advertisements
Track Severe Weather on mobile